Time;durP1;ratioP1;P1;durP2;ratioP2;P2;SDS_P1;SDS_P2;PMS_P1;PMS_P2;Temp;Humidity;BMP_temperature;BMP_pressure;BME280_temperature;BME280_humidity;BME280_pressure;Samples;Min_cycle;Max_cycle;Signal;HPM_P1;HPM_P2
2023/12/09 00:01:40;;;;;;;14.13;3.80;;;;;7.70;100537.00;;;;5045720;28;20236;-72
2023/12/09 00:04:27;;;;;;;10.73;4.33;;;;;7.70;100538.00;;;;5034503;28;20307;-71
2023/12/09 00:07:13;;;;;;;8.47;4.33;;;;;7.80;100542.00;;;;5050622;28;20234;-72
2023/12/09 00:10:01;;;;;;;10.87;4.10;;;;;7.70;100555.00;;;;5049331;28;20700;-70
2023/12/09 00:12:48;;;;;;;5.80;3.40;;;;;7.70;100562.00;;;;5047568;28;20286;-72
2023/12/09 00:15:34;;;;;;;7.70;4.00;;;;;7.70;100551.00;;;;5046749;28;20225;-73
2023/12/09 00:18:20;;;;;;;6.77;3.90;;;;;7.70;100557.00;;;;5048643;28;20242;-73
2023/12/09 00:21:07;;;;;;;7.20;3.93;;;;;7.70;100552.00;;;;5041259;28;20310;-80
2023/12/09 00:23:53;;;;;;;5.90;3.23;;;;;7.70;100553.00;;;;5043011;28;20621;-73
2023/12/09 00:26:41;;;;;;;7.90;3.80;;;;;7.80;100548.00;;;;5047870;28;20297;-72
2023/12/09 00:29:27;;;;;;;7.57;3.13;;;;;7.80;100548.00;;;;5037428;28;20813;-72
2023/12/09 00:32:14;;;;;;;10.90;3.87;;;;;7.80;100542.00;;;;5048607;28;20793;-73
2023/12/09 00:35:00;;;;;;;6.33;3.67;;;;;7.70;100542.00;;;;5048124;28;20331;-72
2023/12/09 00:37:46;;;;;;;8.40;3.47;;;;;7.70;100545.00;;;;5044420;28;20365;-71
2023/12/09 00:40:33;;;;;;;12.43;3.57;;;;;7.70;100543.00;;;;5057957;28;20233;-72
2023/12/09 00:43:20;;;;;;;5.57;3.50;;;;;7.70;100545.00;;;;5052142;28;20237;-71
2023/12/09 00:46:07;;;;;;;6.83;3.33;;;;;7.80;100547.00;;;;5047122;28;20237;-72
2023/12/09 00:48:53;;;;;;;7.57;3.27;;;;;7.80;100545.00;;;;5039007;28;20299;-73
2023/12/09 00:51:40;;;;;;;6.77;3.07;;;;;7.80;100542.00;;;;5050679;28;20254;-73
2023/12/09 00:54:27;;;;;;;6.17;3.13;;;;;7.80;100545.00;;;;5028102;28;20661;-72
2023/12/09 00:57:13;;;;;;;9.10;3.37;;;;;7.80;100543.00;;;;5049700;28;20413;-74
2023/12/09 01:00:00;;;;;;;10.30;3.53;;;;;7.80;100539.00;;;;5050650;28;20268;-73
2023/12/09 01:02:47;;;;;;;10.10;3.30;;;;;7.80;100548.00;;;;5043598;28;20234;-73
2023/12/09 01:05:33;;;;;;;16.57;4.20;;;;;7.90;100538.00;;;;5045959;28;20232;-70
2023/12/09 01:08:20;;;;;;;7.70;3.67;;;;;7.80;100539.00;;;;5042827;28;20304;-73
2023/12/09 01:11:07;;;;;;;6.43;2.93;;;;;7.80;100542.00;;;;5041843;28;20621;-71
2023/12/09 01:13:53;;;;;;;8.43;3.20;;;;;7.90;100548.00;;;;5039169;28;20235;-72
2023/12/09 01:16:41;;;;;;;10.33;3.37;;;;;7.90;100549.00;;;;5041449;28;20615;-72
2023/12/09 01:19:28;;;;;;;8.33;3.10;;;;;8.00;100552.00;;;;5029759;28;20708;-72
2023/12/09 01:22:14;;;;;;;12.87;3.67;;;;;8.00;100548.00;;;;5044309;28;20248;-72
2023/12/09 01:25:00;;;;;;;7.63;3.27;;;;;8.00;100559.00;;;;5040849;28;20293;-73
2023/12/09 01:27:47;;;;;;;7.43;3.07;;;;;8.00;100542.00;;;;5050730;28;20229;-72
2023/12/09 01:30:33;;;;;;;7.43;3.03;;;;;8.00;100552.00;;;;5044688;28;20234;-72
2023/12/09 01:33:20;;;;;;;11.87;4.00;;;;;7.90;100558.00;;;;5046782;28;20260;-73
2023/12/09 01:36:08;;;;;;;6.33;3.23;;;;;8.00;100561.00;;;;5040395;28;20293;-73
2023/12/09 01:38:54;;;;;;;11.40;3.40;;;;;8.00;100559.00;;;;5041121;28;20349;-73
2023/12/09 01:41:40;;;;;;;7.93;3.70;;;;;8.00;100571.00;;;;5041968;28;20377;-72
2023/12/09 01:44:27;;;;;;;5.07;2.67;;;;;8.00;100561.00;;;;5034263;28;20597;-72
2023/12/09 01:47:14;;;;;;;6.67;3.17;;;;;8.10;100560.00;;;;5049649;28;20224;-73
2023/12/09 01:50:02;;;;;;;7.57;3.63;;;;;8.10;100544.00;;;;5041103;28;20372;-72
2023/12/09 01:52:49;;;;;;;10.57;3.40;;;;;8.10;100549.00;;;;5041432;28;20306;-71
2023/12/09 01:55:35;;;;;;;11.27;3.50;;;;;8.10;100555.00;;;;5046938;28;20805;-73
2023/12/09 01:58:21;;;;;;;10.27;2.90;;;;;8.10;100552.00;;;;5039293;28;20234;-73
2023/12/09 02:01:09;;;;;;;11.30;3.30;;;;;8.10;100543.00;;;;5045499;28;20259;-73
2023/12/09 02:03:55;;;;;;;12.07;3.67;;;;;8.10;100551.00;;;;5039636;28;20724;-72
2023/12/09 02:06:42;;;;;;;11.37;3.40;;;;;8.10;100548.00;;;;5045807;28;20794;-72
2023/12/09 02:09:28;;;;;;;8.30;3.60;;;;;8.10;100558.00;;;;5024725;28;20322;-69
2023/12/09 02:12:20;;;;;;;6.70;3.00;;;;;8.10;100545.00;;;;5045975;28;20375;-72
2023/12/09 02:15:10;;;;;;;7.77;3.33;;;;;8.10;100547.00;;;;5046161;28;20241;-73
2023/12/09 02:18:01;;;;;;;5.33;2.97;;;;;8.00;100548.00;;;;5039712;28;20349;-72
2023/12/09 02:20:48;;;;;;;6.13;3.13;;;;;8.10;100549.00;;;;5046077;28;20234;-73
2023/12/09 02:23:35;;;;;;;10.47;3.30;;;;;8.10;100542.00;;;;5044431;28;20233;-73
2023/12/09 02:26:26;;;;;;;14.00;3.40;;;;;8.10;100537.00;;;;5045820;28;20307;-71
2023/12/09 02:29:13;;;;;;;8.57;2.70;;;;;8.00;100529.00;;;;5045895;28;20741;-73
2023/12/09 02:32:03;;;;;;;4.43;3.00;;;;;8.00;100524.00;;;;5047354;28;20301;-71
2023/12/09 02:34:52;;;;;;;6.07;2.63;;;;;8.00;100524.00;;;;5038537;28;20611;-74
2023/12/09 02:37:39;;;;;;;9.70;3.33;;;;;8.00;100510.00;;;;5044257;28;20741;-73
2023/12/09 02:40:28;;;;;;;7.83;3.40;;;;;8.00;100511.00;;;;5043902;28;20229;-71
2023/12/09 02:43:15;;;;;;;9.40;3.10;;;;;7.90;100510.00;;;;5050461;28;20362;-71
2023/12/09 02:46:01;;;;;;;5.50;2.90;;;;;7.90;100510.00;;;;5039157;28;20381;-73
2023/12/09 02:48:48;;;;;;;9.53;2.83;;;;;7.90;100506.00;;;;5035290;28;20364;-73
2023/12/09 02:51:34;;;;;;;6.70;2.83;;;;;7.90;100512.00;;;;5038661;28;20605;-72
2023/12/09 02:54:21;;;;;;;9.17;2.47;;;;;7.90;100498.00;;;;5046098;28;20711;-72
2023/12/09 02:57:09;;;;;;;5.80;3.07;;;;;7.90;100502.00;;;;5041321;28;20233;-71
2023/12/09 02:59:55;;;;;;;11.27;3.20;;;;;7.90;100498.00;;;;5043324;28;20241;-72
2023/12/09 03:02:41;;;;;;;6.47;2.47;;;;;7.80;100492.00;;;;5044678;28;20913;-72
2023/12/09 03:05:27;;;;;;;3.60;2.13;;;;;7.80;100484.00;;;;5039446;28;20234;-71
2023/12/09 03:08:13;;;;;;;6.20;2.60;;;;;7.80;100478.00;;;;5041201;28;20608;-71
2023/12/09 03:11:00;;;;;;;3.30;2.33;;;;;7.70;100491.00;;;;5038931;28;20266;-72
2023/12/09 03:13:48;;;;;;;11.53;2.93;;;;;7.60;100481.00;;;;5043899;28;20230;-71
2023/12/09 03:16:37;;;;;;;6.37;2.67;;;;;7.60;100485.00;;;;5042917;28;20820;-72
2023/12/09 03:19:23;;;;;;;10.23;2.80;;;;;7.50;100483.00;;;;5035972;28;20253;-72
2023/12/09 03:22:09;;;;;;;7.43;2.43;;;;;7.50;100476.00;;;;5037464;28;20226;-69
2023/12/09 03:24:56;;;;;;;3.90;2.63;;;;;7.50;100475.00;;;;5043113;28;20303;-72
2023/12/09 03:27:42;;;;;;;4.07;2.63;;;;;7.50;100468.00;;;;5045324;28;20236;-71
2023/12/09 03:30:30;;;;;;;12.33;3.47;;;;;7.30;100465.00;;;;5044454;28;20241;-73
2023/12/09 03:33:16;;;;;;;8.30;2.47;;;;;7.30;100466.00;;;;5039767;28;20720;-72
2023/12/09 03:36:03;;;;;;;2.97;1.93;;;;;7.20;100461.00;;;;5041642;28;20226;-73
2023/12/09 03:38:49;;;;;;;3.30;1.60;;;;;7.00;100448.00;;;;5044223;28;20245;-73
2023/12/09 03:41:36;;;;;;;5.97;2.83;;;;;7.00;100445.00;;;;5043874;28;20747;-71
2023/12/09 03:44:22;;;;;;;4.40;2.20;;;;;6.90;100447.00;;;;5043274;28;20718;-71
2023/12/09 03:47:10;;;;;;;5.20;2.10;;;;;6.90;100441.00;;;;5044208;28;20228;-73
2023/12/09 03:50:08;;;;;;;11.17;2.23;;;;;6.80;100444.00;;;;5041456;28;20880;-72
2023/12/09 03:52:54;;;;;;;5.67;2.20;;;;;6.70;100453.00;;;;5044423;28;20261;-72
2023/12/09 03:55:41;;;;;;;2.77;2.33;;;;;6.70;100446.00;;;;5044652;28;20239;-73
2023/12/09 03:58:27;;;;;;;5.70;1.90;;;;;6.70;100443.00;;;;5041189;28;20613;-72
2023/12/09 04:01:13;;;;;;;4.90;2.20;;;;;6.70;100446.00;;;;5043802;28;20224;-73
2023/12/09 04:04:01;;;;;;;3.13;2.10;;;;;6.60;100456.00;;;;5044866;28;20891;-72
2023/12/09 04:06:49;;;;;;;3.93;1.80;;;;;6.60;100463.00;;;;5037622;28;20237;-72
2023/12/09 04:09:35;;;;;;;2.73;1.90;;;;;6.60;100460.00;;;;5041745;28;20237;-72
2023/12/09 04:12:21;;;;;;;5.50;1.70;;;;;6.60;100470.00;;;;5044355;28;20379;-73
2023/12/09 04:15:09;;;;;;;6.83;2.03;;;;;6.50;100468.00;;;;5038090;28;20318;-73
2023/12/09 04:17:56;;;;;;;4.20;2.10;;;;;6.50;100462.00;;;;5036542;28;20706;-70
2023/12/09 04:20:44;;;;;;;2.97;2.20;;;;;6.50;100464.00;;;;5044053;28;20244;-71
2023/12/09 04:23:30;;;;;;;4.80;2.07;;;;;6.60;100462.00;;;;5035965;28;20244;-72
2023/12/09 04:26:16;;;;;;;8.13;2.27;;;;;6.70;100454.00;;;;5038228;28;20720;-73
2023/12/09 04:29:06;;;;;;;6.53;2.23;;;;;6.70;100452.00;;;;5035507;28;20228;-72
2023/12/09 04:31:53;;;;;;;4.47;1.93;;;;;6.60;100468.00;;;;5041872;28;20232;-72
2023/12/09 04:34:39;;;;;;;10.20;2.30;;;;;6.70;100459.00;;;;5040551;28;20745;-69
2023/12/09 04:37:27;;;;;;;2.80;1.80;;;;;6.70;100456.00;;;;5034945;28;20236;-71
2023/12/09 04:40:13;;;;;;;5.20;2.37;;;;;6.70;100456.00;;;;5040685;28;21202;-72
2023/12/09 04:43:04;;;;;;;6.60;2.43;;;;;6.60;100462.00;;;;5040761;28;20327;-72
2023/12/09 04:45:52;;;;;;;4.60;2.23;;;;;6.50;100454.00;;;;5047280;28;20236;-72
2023/12/09 04:48:38;;;;;;;9.43;2.60;;;;;6.40;100439.00;;;;5043373;28;20711;-72
2023/12/09 04:51:24;;;;;;;5.13;1.87;;;;;6.40;100440.00;;;;5037730;28;20755;-71
2023/12/09 04:54:12;;;;;;;3.93;1.90;;;;;6.40;100444.00;;;;5041200;28;20590;-72
2023/12/09 04:56:58;;;;;;;6.53;2.23;;;;;6.50;100435.00;;;;5047228;28;20227;-72
2023/12/09 04:59:45;;;;;;;5.00;2.07;;;;;6.50;100416.00;;;;5046572;28;20237;-72
2023/12/09 05:02:31;;;;;;;5.00;2.33;;;;;6.60;100422.00;;;;5046383;28;20248;-71
2023/12/09 05:05:17;;;;;;;5.60;2.17;;;;;6.70;100420.00;;;;5041308;28;20228;-71
2023/12/09 05:08:04;;;;;;;5.77;2.20;;;;;6.70;100426.00;;;;5045739;28;20289;-72
2023/12/09 05:10:51;;;;;;;4.67;1.80;;;;;6.70;100425.00;;;;5040251;28;20387;-72
2023/12/09 05:13:38;;;;;;;8.20;2.63;;;;;6.70;100429.00;;;;5044010;28;20238;-72
2023/12/09 05:16:25;;;;;;;4.37;1.87;;;;;6.80;100429.00;;;;5043074;28;20617;-71
2023/12/09 05:19:12;;;;;;;4.80;2.87;;;;;6.80;100424.00;;;;5046886;28;20649;-72
2023/12/09 05:21:58;;;;;;;4.87;2.27;;;;;6.80;100419.00;;;;5040936;28;20295;-70
2023/12/09 05:24:44;;;;;;;7.23;1.80;;;;;6.80;100417.00;;;;5042765;28;20291;-73
2023/12/09 05:27:32;;;;;;;2.70;2.17;;;;;6.80;100413.00;;;;5040066;28;20609;-73
2023/12/09 05:30:18;;;;;;;4.10;1.90;;;;;6.80;100407.00;;;;5045124;28;20714;-71
2023/12/09 05:33:05;;;;;;;5.13;2.10;;;;;6.80;100414.00;;;;5040827;28;20324;-72
2023/12/09 05:35:51;;;;;;;3.93;2.60;;;;;6.70;100399.00;;;;5041610;28;20773;-71
2023/12/09 05:38:38;;;;;;;2.43;2.03;;;;;6.80;100400.00;;;;5035928;28;20360;-72
2023/12/09 05:41:25;;;;;;;6.93;1.80;;;;;6.60;100392.00;;;;5047084;28;20245;-71
2023/12/09 05:44:13;;;;;;;3.63;1.90;;;;;6.60;100399.00;;;;5034644;28;20224;-73
2023/12/09 05:46:59;;;;;;;5.90;2.17;;;;;6.50;100397.00;;;;5045419;28;20229;-71
2023/12/09 05:49:45;;;;;;;12.00;2.20;;;;;6.40;100391.00;;;;5043311;28;20260;-73
2023/12/09 05:52:31;;;;;;;7.80;2.50;;;;;6.40;100384.00;;;;5042221;28;20301;-73
2023/12/09 05:55:18;;;;;;;5.67;2.00;;;;;6.30;100387.00;;;;5034094;28;20607;-71
2023/12/09 05:58:05;;;;;;;4.87;2.43;;;;;6.30;100385.00;;;;5042374;28;20363;-72
2023/12/09 06:00:52;;;;;;;4.07;2.10;;;;;6.20;100380.00;;;;5043372;28;20616;-71
2023/12/09 06:03:39;;;;;;;3.20;2.37;;;;;6.20;100382.00;;;;5035865;28;20239;-71
2023/12/09 06:06:25;;;;;;;2.03;1.80;;;;;6.00;100400.00;;;;5044348;28;20319;-72
2023/12/09 06:09:12;;;;;;;2.23;1.40;;;;;6.00;100383.00;;;;5042186;28;20233;-71
2023/12/09 06:11:58;;;;;;;3.07;1.90;;;;;5.90;100386.00;;;;5038197;28;20361;-71
2023/12/09 06:14:44;;;;;;;2.77;2.00;;;;;6.00;100386.00;;;;5040426;28;20237;-72
2023/12/09 06:17:32;;;;;;;3.63;2.20;;;;;5.90;100379.00;;;;5043251;28;20611;-72
2023/12/09 06:20:19;;;;;;;4.67;2.30;;;;;6.00;100366.00;;;;5046178;28;20301;-72
2023/12/09 06:23:05;;;;;;;3.87;1.67;;;;;5.90;100362.00;;;;5037907;28;20237;-73
2023/12/09 06:25:52;;;;;;;4.53;1.93;;;;;5.90;100354.00;;;;5037505;28;20276;-73
2023/12/09 06:28:38;;;;;;;3.27;1.53;;;;;5.80;100346.00;;;;5039304;28;20242;-71
2023/12/09 06:31:25;;;;;;;4.40;1.93;;;;;5.80;100353.00;;;;5039108;28;20389;-70
2023/12/09 06:34:12;;;;;;;6.80;1.97;;;;;5.70;100353.00;;;;5044890;28;20228;-73
2023/12/09 06:36:59;;;;;;;3.87;2.10;;;;;5.70;100356.00;;;;5042402;28;20312;-72
2023/12/09 06:39:45;;;;;;;2.37;1.60;;;;;5.70;100360.00;;;;5042082;28;20323;-73
2023/12/09 06:42:32;;;;;;;1.87;1.57;;;;;5.50;100354.00;;;;5038615;28;20891;-72
2023/12/09 06:45:18;;;;;;;5.80;2.10;;;;;5.50;100342.00;;;;5044133;28;20237;-72
2023/12/09 06:48:05;;;;;;;4.23;2.10;;;;;5.40;100342.00;;;;5040815;28;20227;-72
2023/12/09 06:50:53;;;;;;;3.17;1.80;;;;;5.40;100337.00;;;;5042731;28;20260;-72
2023/12/09 06:53:40;;;;;;;4.53;1.60;;;;;5.30;100348.00;;;;5034324;28;20236;-72
2023/12/09 06:56:26;;;;;;;5.97;1.80;;;;;5.30;100339.00;;;;5039780;28;20235;-72
2023/12/09 06:59:12;;;;;;;2.90;2.00;;;;;5.40;100333.00;;;;5045264;28;20354;-72
2023/12/09 07:01:58;;;;;;;5.30;2.07;;;;;5.40;100331.00;;;;5043396;28;20236;-73
2023/12/09 07:04:45;;;;;;;2.57;2.20;;;;;5.30;100338.00;;;;5045212;28;20279;-70
2023/12/09 07:07:33;;;;;;;1.90;1.50;;;;;5.30;100325.00;;;;5040648;28;20605;-72
2023/12/09 07:10:19;;;;;;;2.63;1.53;;;;;5.20;100324.00;;;;5045234;28;20233;-73
2023/12/09 07:13:06;;;;;;;6.23;2.40;;;;;5.20;100330.00;;;;5041848;28;20256;-72
2023/12/09 07:15:52;;;;;;;4.37;1.97;;;;;5.20;100314.00;;;;5041291;28;20233;-72
2023/12/09 07:18:42;;;;;;;4.67;2.17;;;;;5.30;100306.00;;;;5043060;28;20271;-72
2023/12/09 07:21:28;;;;;;;4.43;2.13;;;;;5.30;100303.00;;;;5044157;28;20733;-72
2023/12/09 07:24:16;;;;;;;3.87;2.10;;;;;5.30;100297.00;;;;5037411;28;20256;-72
2023/12/09 07:27:03;;;;;;;2.90;2.20;;;;;5.40;100300.00;;;;5036790;28;20220;-71
2023/12/09 07:29:50;;;;;;;2.20;2.00;;;;;5.40;100286.00;;;;5043174;28;20347;-72
2023/12/09 07:32:36;;;;;;;1.83;1.73;;;;;5.30;100279.00;;;;5038769;28;20232;-74
2023/12/09 07:35:22;;;;;;;3.00;1.80;;;;;5.30;100271.00;;;;5036745;28;20236;-71
2023/12/09 07:38:09;;;;;;;4.17;2.00;;;;;5.30;100266.00;;;;5043066;28;20324;-73
2023/12/09 07:40:57;;;;;;;6.57;1.57;;;;;5.40;100258.00;;;;5034125;28;20651;-74
2023/12/09 07:43:43;;;;;;;3.20;1.43;;;;;5.50;100246.00;;;;5043260;28;20240;-73
2023/12/09 07:46:29;;;;;;;4.97;2.10;;;;;5.60;100257.00;;;;5038896;28;20240;-74
2023/12/09 07:49:15;;;;;;;2.87;1.77;;;;;5.70;100243.00;;;;5044242;28;20228;-73
2023/12/09 07:52:02;;;;;;;5.40;1.60;;;;;5.80;100237.00;;;;5041726;28;20733;-74
2023/12/09 07:54:48;;;;;;;5.87;2.00;;;;;5.90;100243.00;;;;5044234;28;20232;-75
2023/12/09 07:57:35;;;;;;;7.27;2.37;;;;;5.90;100232.00;;;;5038588;28;20236;-71
2023/12/09 08:00:22;;;;;;;5.97;1.70;;;;;6.00;100232.00;;;;5037157;28;20255;-71
2023/12/09 08:03:08;;;;;;;4.03;1.77;;;;;6.20;100235.00;;;;5043214;28;20226;-73
2023/12/09 08:05:55;;;;;;;4.17;1.83;;;;;6.30;100221.00;;;;5044249;28;20224;-72
2023/12/09 08:08:41;;;;;;;3.57;1.90;;;;;6.40;100205.00;;;;5045051;28;20236;-73
2023/12/09 08:11:27;;;;;;;2.57;1.80;;;;;6.30;100214.00;;;;5045796;28;20232;-76
2023/12/09 08:14:14;;;;;;;5.07;1.70;;;;;6.30;100212.00;;;;5040265;28;20249;-72
2023/12/09 08:17:01;;;;;;;2.23;1.70;;;;;6.30;100218.00;;;;5044783;28;20228;-72
2023/12/09 08:19:47;;;;;;;2.17;1.60;;;;;6.40;100220.00;;;;5044193;28;20677;-73
2023/12/09 08:22:33;;;;;;;1.93;1.47;;;;;6.40;100200.00;;;;5036368;28;20605;-72
2023/12/09 08:25:20;;;;;;;3.43;1.77;;;;;6.40;100198.00;;;;5047352;28;20225;-72
2023/12/09 08:28:07;;;;;;;2.60;1.77;;;;;6.50;100193.00;;;;5039195;28;20228;-70
2023/12/09 08:30:54;;;;;;;3.90;1.87;;;;;6.50;100189.00;;;;5037665;28;20232;-72
2023/12/09 08:33:41;;;;;;;4.53;2.07;;;;;6.60;100191.00;;;;5044226;28;20225;-69
2023/12/09 08:36:28;;;;;;;2.37;1.70;;;;;6.70;100189.00;;;;5046877;28;20244;-73
2023/12/09 08:39:15;;;;;;;3.00;1.80;;;;;6.80;100189.00;;;;5045830;28;20240;-73
2023/12/09 08:42:01;;;;;;;4.33;1.50;;;;;6.80;100189.00;;;;5039082;28;20233;-73
2023/12/09 08:44:48;;;;;;;2.90;2.00;;;;;6.90;100180.00;;;;5042163;28;20240;-74
2023/12/09 08:47:35;;;;;;;4.60;1.70;;;;;7.00;100191.00;;;;5036499;28;20238;-72
2023/12/09 08:50:21;;;;;;;2.80;2.17;;;;;7.10;100195.00;;;;5043739;28;20223;-72
2023/12/09 08:53:11;;;;;;;2.03;1.30;;;;;7.30;100191.00;;;;5045025;28;20280;-70
2023/12/09 08:55:57;;;;;;;3.77;1.77;;;;;7.40;100181.00;;;;5036852;28;20235;-71
2023/12/09 08:58:44;;;;;;;4.90;1.70;;;;;7.50;100178.00;;;;5040047;28;20780;-73
2023/12/09 09:01:30;;;;;;;5.47;1.20;;;;;7.60;100185.00;;;;5044139;28;20242;-74
2023/12/09 09:04:18;;;;;;;3.40;1.53;;;;;7.50;100179.00;;;;5040225;28;20234;-72
2023/12/09 09:07:05;;;;;;;2.23;1.40;;;;;7.50;100174.00;;;;5050299;28;20237;-72
2023/12/09 09:09:51;;;;;;;1.80;1.57;;;;;7.60;100177.00;;;;5041608;28;20731;-71
2023/12/09 09:12:37;;;;;;;2.70;1.73;;;;;7.60;100173.00;;;;5038025;28;20231;-71
2023/12/09 09:15:24;;;;;;;1.40;1.30;;;;;7.60;100175.00;;;;5046235;28;20606;-72
2023/12/09 09:18:10;;;;;;;1.60;1.40;;;;;7.60;100169.00;;;;5037533;28;20230;-71
2023/12/09 09:20:59;;;;;;;2.30;1.40;;;;;7.70;100178.00;;;;5044523;28;20290;-71
2023/12/09 09:23:45;;;;;;;2.93;1.50;;;;;7.80;100158.00;;;;5026063;28;20288;-73
2023/12/09 09:26:32;;;;;;;10.27;1.90;;;;;7.80;100151.00;;;;5044582;28;20277;-72
2023/12/09 09:29:18;;;;;;;6.47;2.07;;;;;7.90;100148.00;;;;5037653;28;20235;-72
2023/12/09 09:32:05;;;;;;;3.50;1.90;;;;;8.10;100138.00;;;;5039021;28;20255;-71
2023/12/09 09:34:51;;;;;;;3.13;1.90;;;;;8.30;100119.00;;;;5042144;28;20227;-73
2023/12/09 09:37:39;;;;;;;2.40;1.77;;;;;8.50;100113.00;;;;5043052;28;20229;-71
2023/12/09 09:40:25;;;;;;;6.23;1.80;;;;;8.60;100111.00;;;;5039376;28;20228;-72
2023/12/09 09:43:19;;;;;;;8.43;1.93;;;;;8.60;100119.00;;;;5045323;28;20260;-73
2023/12/09 09:46:07;;;;;;;2.80;1.57;;;;;8.70;100095.00;;;;5040919;28;20285;-70
2023/12/09 09:48:56;;;;;;;3.80;1.53;;;;;8.60;100108.00;;;;5041875;28;20273;-72
2023/12/09 09:51:45;;;;;;;4.47;1.63;;;;;8.70;100082.00;;;;5041411;28;20762;-72
2023/12/09 09:54:33;;;;;;;6.37;1.50;;;;;8.70;100075.00;;;;5032867;28;20434;-73
2023/12/09 09:57:21;;;;;;;3.17;1.40;;;;;8.70;100059.00;;;;5046815;28;20230;-73
2023/12/09 10:00:14;;;;;;;5.03;1.87;;;;;8.70;100049.00;;;;5035799;28;20233;-73
2023/12/09 10:03:01;;;;;;;3.93;1.90;;;;;8.80;100057.00;;;;5042925;28;20386;-72
2023/12/09 10:05:50;;;;;;;2.17;1.80;;;;;8.90;100058.00;;;;5041018;28;20287;-70
2023/12/09 10:08:37;;;;;;;5.93;1.63;;;;;9.10;100038.00;;;;5044810;28;20235;-69
2023/12/09 10:11:24;;;;;;;5.80;2.13;;;;;9.00;100022.00;;;;5043672;28;20306;-71
2023/12/09 10:14:11;;;;;;;2.27;1.77;;;;;9.00;100025.00;;;;5045020;28;20279;-73
2023/12/09 10:16:58;;;;;;;1.97;1.10;;;;;9.10;100019.00;;;;5039849;28;20228;-72
2023/12/09 10:19:45;;;;;;;5.77;1.90;;;;;9.10;100004.00;;;;5045511;28;20709;-72
2023/12/09 10:22:31;;;;;;;8.03;1.83;;;;;9.10;99993.00;;;;5039356;28;20813;-71
2023/12/09 10:25:22;;;;;;;3.23;1.40;;;;;9.10;100003.00;;;;5046200;28;20239;-72
2023/12/09 10:28:10;;;;;;;3.50;1.50;;;;;9.00;99999.00;;;;5034546;28;20305;-73
2023/12/09 10:30:57;;;;;;;4.03;1.27;;;;;9.00;99995.00;;;;5039052;28;20234;-70
2023/12/09 10:33:44;;;;;;;5.67;1.50;;;;;9.00;99986.00;;;;5040566;28;20260;-74
2023/12/09 10:36:31;;;;;;;1.80;1.57;;;;;9.00;99985.00;;;;5045071;28;20225;-74
2023/12/09 10:39:19;;;;;;;3.63;1.33;;;;;9.00;99968.00;;;;5043644;28;20224;-73
2023/12/09 10:42:06;;;;;;;3.73;1.30;;;;;9.10;99966.00;;;;5044094;28;20232;-71
2023/12/09 10:44:55;;;;;;;4.57;1.60;;;;;9.00;99954.00;;;;5038220;28;20745;-72
2023/12/09 10:47:41;;;;;;;3.77;2.27;;;;;9.00;99944.00;;;;5038128;28;20280;-73
2023/12/09 10:50:28;;;;;;;3.33;1.53;;;;;9.00;99932.00;;;;5040491;28;20775;-73
2023/12/09 10:53:14;;;;;;;3.83;2.07;;;;;9.00;99938.00;;;;5042120;28;20240;-73
2023/12/09 10:56:01;;;;;;;2.77;1.50;;;;;9.10;99918.00;;;;5043255;28;20236;-72
2023/12/09 10:58:48;;;;;;;4.53;1.37;;;;;9.10;99904.00;;;;5036938;28;20227;-70
2023/12/09 11:01:37;;;;;;;2.27;1.47;;;;;9.20;99892.00;;;;5041212;28;20329;-73
2023/12/09 11:04:23;;;;;;;3.53;1.60;;;;;9.10;99901.00;;;;5042596;28;20236;-73
2023/12/09 11:07:11;;;;;;;3.03;1.57;;;;;9.10;99897.00;;;;5045379;28;20324;-72
2023/12/09 11:09:58;;;;;;;8.37;1.67;;;;;9.20;99878.00;;;;5042550;28;20376;-72
2023/12/09 11:12:47;;;;;;;5.87;1.73;;;;;9.20;99869.00;;;;5042002;28;20311;-72
2023/12/09 11:15:34;;;;;;;6.33;1.50;;;;;9.30;99877.00;;;;5042615;28;20257;-73
2023/12/09 11:18:21;;;;;;;6.13;1.87;;;;;9.30;99864.00;;;;5041511;28;20702;-72
2023/12/09 11:21:09;;;;;;;3.43;1.40;;;;;9.40;99853.00;;;;5040212;28;20299;-72
2023/12/09 11:23:56;;;;;;;3.70;1.23;;;;;9.50;99856.00;;;;5039472;28;20365;-71
2023/12/09 11:26:45;;;;;;;3.90;1.43;;;;;9.50;99843.00;;;;5041622;28;20248;-70
2023/12/09 11:29:31;;;;;;;4.50;2.20;;;;;9.60;99825.00;;;;5032798;28;20237;-73
2023/12/09 11:32:18;;;;;;;6.13;1.60;;;;;9.50;99810.00;;;;5040872;28;20727;-71
2023/12/09 11:35:07;;;;;;;6.23;1.43;;;;;9.50;99811.00;;;;5044420;28;20307;-73
2023/12/09 11:37:54;;;;;;;1.80;1.43;;;;;9.50;99796.00;;;;5034032;28;20278;-73
2023/12/09 11:40:41;;;;;;;7.53;2.10;;;;;9.60;99784.00;;;;5042047;28;20372;-72
2023/12/09 11:43:27;;;;;;;3.27;1.57;;;;;9.60;99775.00;;;;5040700;28;20238;-71
2023/12/09 11:46:14;;;;;;;4.70;1.80;;;;;9.70;99765.00;;;;5040550;28;20355;-71
2023/12/09 11:49:01;;;;;;;15.23;2.10;;;;;9.70;99744.00;;;;5063283;28;20216;-72
2023/12/09 11:51:49;;;;;;;2.30;1.30;;;;;9.80;99737.00;;;;5060747;28;20236;-72
2023/12/09 11:54:35;;;;;;;5.63;1.50;;;;;9.90;99720.00;;;;5055879;28;20287;-71
2023/12/09 11:57:22;;;;;;;3.70;1.70;;;;;9.90;99723.00;;;;5057706;28;20237;-70
2023/12/09 12:00:11;;;;;;;3.53;1.77;;;;;9.90;99717.00;;;;5064556;28;20448;-71
2023/12/09 12:02:57;;;;;;;5.17;1.90;;;;;9.90;99710.00;;;;5065313;28;20355;-71
2023/12/09 12:05:44;;;;;;;1.87;1.20;;;;;9.80;99703.00;;;;5062963;28;20225;-71
2023/12/09 12:08:31;;;;;;;2.87;1.70;;;;;9.70;99685.00;;;;5063483;28;20225;-72
2023/12/09 12:11:20;;;;;;;3.30;1.60;;;;;9.70;99674.00;;;;5064146;28;20220;-70
2023/12/09 12:14:06;;;;;;;4.40;1.30;;;;;9.70;99677.00;;;;5043962;28;20626;-71
2023/12/09 12:16:52;;;;;;;3.13;1.47;;;;;9.60;99668.00;;;;5044412;28;20232;-70
2023/12/09 12:19:40;;;;;;;4.33;1.43;;;;;9.70;99673.00;;;;5044595;28;20229;-68
2023/12/09 12:22:26;;;;;;;4.47;1.63;;;;;9.70;99675.00;;;;5038846;28;20630;-68
2023/12/09 12:25:14;;;;;;;6.43;1.70;;;;;9.60;99650.00;;;;5042377;28;20243;-69
2023/12/09 12:28:00;;;;;;;3.77;1.80;;;;;9.60;99644.00;;;;5043722;28;20285;-71
2023/12/09 12:30:51;;;;;;;2.50;1.80;;;;;9.50;99637.00;;;;5046374;28;20225;-72
2023/12/09 12:33:37;;;;;;;6.03;1.60;;;;;9.50;99626.00;;;;5041956;28;20236;-72
2023/12/09 12:36:23;;;;;;;3.47;1.80;;;;;9.50;99616.00;;;;5040623;28;20235;-73
2023/12/09 12:39:11;;;;;;;3.73;1.47;;;;;9.40;99602.00;;;;5036714;28;20233;-73
2023/12/09 12:41:59;;;;;;;3.10;1.30;;;;;9.40;99589.00;;;;5037443;28;20235;-72
2023/12/09 12:44:46;;;;;;;6.00;1.57;;;;;9.40;99570.00;;;;5042411;28;20609;-75
2023/12/09 12:47:32;;;;;;;2.47;1.70;;;;;9.40;99563.00;;;;5038695;28;20271;-71
2023/12/09 12:50:18;;;;;;;2.60;1.70;;;;;9.30;99551.00;;;;5034278;28;20299;-72
2023/12/09 12:53:05;;;;;;;4.20;1.80;;;;;9.30;99556.00;;;;5038692;28;20244;-72
2023/12/09 12:55:54;;;;;;;7.67;1.87;;;;;9.50;99548.00;;;;5035863;28;20272;-73
2023/12/09 12:58:43;;;;;;;7.70;2.30;;;;;9.50;99532.00;;;;5041466;28;20240;-72
2023/12/09 13:01:29;;;;;;;2.70;1.33;;;;;9.50;99524.00;;;;5046416;28;20733;-73
2023/12/09 13:04:15;;;;;;;5.60;2.00;;;;;9.60;99532.00;;;;5046762;28;20240;-72
2023/12/09 13:07:04;;;;;;;9.00;1.83;;;;;9.50;99517.00;;;;5050425;28;20701;-73
2023/12/09 13:09:50;;;;;;;3.17;1.50;;;;;9.50;99487.00;;;;5046649;28;20267;-69
2023/12/09 13:12:37;;;;;;;4.33;1.60;;;;;9.40;99477.00;;;;5047838;28;20744;-71
2023/12/09 13:15:25;;;;;;;3.07;1.37;;;;;9.50;99482.00;;;;5044642;28;20238;-71
2023/12/09 13:18:12;;;;;;;5.00;1.90;;;;;9.40;99463.00;;;;5041962;28;20224;-72
2023/12/09 13:20:59;;;;;;;2.23;1.60;;;;;9.50;99455.00;;;;5033099;28;20240;-68
2023/12/09 13:23:45;;;;;;;4.10;1.40;;;;;9.50;99432.00;;;;5040075;28;20248;-71
2023/12/09 13:26:32;;;;;;;2.80;1.73;;;;;9.50;99440.00;;;;5050124;28;20233;-71
2023/12/09 13:29:18;;;;;;;1.70;1.33;;;;;9.50;99427.00;;;;5045203;28;20282;-70
2023/12/09 13:32:07;;;;;;;6.07;2.03;;;;;9.40;99406.00;;;;5045036;28;20228;-71
2023/12/09 13:34:53;;;;;;;4.97;1.57;;;;;9.40;99381.00;;;;5041689;28;20233;-71
2023/12/09 13:37:40;;;;;;;3.93;2.07;;;;;9.30;99385.00;;;;5044086;28;20253;-72
2023/12/09 13:40:26;;;;;;;2.20;1.30;;;;;9.40;99370.00;;;;5048240;28;20233;-73
2023/12/09 13:43:13;;;;;;;2.87;1.60;;;;;9.40;99353.00;;;;5045898;28;20232;-71
2023/12/09 13:46:00;;;;;;;4.80;1.50;;;;;9.40;99352.00;;;;5038300;28;20232;-72
2023/12/09 13:48:48;;;;;;;2.93;1.53;;;;;9.30;99337.00;;;;5045249;28;20236;-73
2023/12/09 13:51:34;;;;;;;2.37;1.70;;;;;9.30;99328.00;;;;5037961;28;20352;-71
2023/12/09 13:54:22;;;;;;;3.07;2.00;;;;;9.30;99314.00;;;;5043619;28;20233;-69
2023/12/09 13:57:09;;;;;;;5.87;1.77;;;;;9.30;99300.00;;;;5040560;28;20232;-69